createdAt,value
2018-12-29T00:01:18.119Z,11.63
2018-12-29T00:03:59.441Z,11.38
2018-12-29T00:06:40.363Z,12.37
2018-12-29T00:09:21.110Z,11.55
2018-12-29T00:12:02.171Z,11.30
2018-12-29T00:14:42.780Z,12.10
2018-12-29T00:17:23.471Z,11.33
2018-12-29T00:20:04.547Z,11.90
2018-12-29T00:22:45.230Z,11.68
2018-12-29T00:25:26.494Z,10.80
2018-12-29T00:28:07.758Z,11.20
2018-12-29T00:30:48.343Z,10.17
2018-12-29T00:33:29.422Z,11.28
2018-12-29T00:36:09.759Z,11.00
2018-12-29T00:38:50.289Z,11.40
2018-12-29T00:41:30.962Z,11.70
2018-12-29T00:44:11.902Z,11.00
2018-12-29T00:46:52.976Z,10.47
2018-12-29T00:49:33.367Z,10.85
2018-12-29T00:52:13.986Z,11.78
2018-12-29T00:54:54.849Z,11.68
2018-12-29T00:57:35.558Z,11.23
2018-12-29T01:00:16.558Z,12.15
2018-12-29T01:02:57.302Z,12.98
2018-12-29T01:05:37.891Z,12.80
2018-12-29T01:08:19.031Z,13.20
2018-12-29T01:10:59.599Z,12.00
2018-12-29T01:13:40.422Z,12.28
2018-12-29T01:16:21.178Z,12.03
2018-12-29T01:19:01.830Z,12.50
2018-12-29T01:21:42.322Z,11.33
2018-12-29T01:24:23.186Z,11.55
2018-12-29T01:27:03.925Z,11.67
2018-12-29T01:29:44.856Z,10.98
2018-12-29T01:32:26.447Z,11.77
2018-12-29T01:35:07.567Z,11.00
2018-12-29T01:37:48.191Z,10.82
2018-12-29T01:40:29.575Z,10.95
2018-12-29T01:43:10.095Z,11.18
2018-12-29T01:45:51.209Z,10.50
2018-12-29T01:48:32.286Z,12.70
2018-12-29T01:51:13.014Z,10.27
2018-12-29T01:53:53.671Z,11.30
2018-12-29T01:56:35.431Z,11.23
2018-12-29T01:59:17.225Z,12.55
2018-12-29T02:01:57.739Z,11.37
2018-12-29T02:07:24.140Z,10.90
2018-12-29T02:10:05.071Z,11.15
2018-12-29T02:12:47.513Z,12.13
2018-12-29T02:15:28.141Z,11.57
2018-12-29T02:18:09.025Z,12.07
2018-12-29T02:20:49.574Z,11.00
2018-12-29T02:23:30.379Z,11.93
2018-12-29T02:26:10.951Z,12.33
2018-12-29T02:28:51.550Z,12.85
2018-12-29T02:31:32.907Z,11.80
2018-12-29T02:37:35.669Z,12.03
2018-12-29T02:40:16.214Z,11.68
2018-12-29T02:42:57.047Z,11.65
2018-12-29T02:45:37.417Z,11.48
2018-12-29T02:48:17.841Z,12.53
2018-12-29T02:50:58.235Z,11.17
2018-12-29T02:53:38.776Z,11.68
2018-12-29T02:56:19.551Z,11.43
2018-12-29T02:59:00.324Z,12.53
2018-12-29T03:01:41.547Z,11.20
2018-12-29T03:04:22.274Z,11.38
2018-12-29T03:07:02.640Z,12.17
2018-12-29T03:09:43.575Z,12.40
2018-12-29T03:12:24.432Z,12.03
2018-12-29T03:15:05.771Z,12.25
2018-12-29T03:17:46.441Z,12.05
2018-12-29T03:20:15.311Z,12.53
2018-12-29T03:22:44.399Z,11.45
2018-12-29T03:25:13.228Z,11.28
2018-12-29T03:27:42.143Z,12.37
2018-12-29T03:30:22.702Z,12.82
2018-12-29T03:33:03.184Z,12.65
2018-12-29T03:35:44.801Z,12.30
2018-12-29T03:38:25.917Z,11.70
2018-12-29T03:41:06.679Z,12.50
2018-12-29T03:43:47.523Z,12.30
2018-12-29T03:46:26.855Z,12.30
2018-12-29T03:49:14.967Z,13.78
2018-12-29T03:52:03.025Z,13.47
2018-12-29T03:54:51.183Z,13.25
2018-12-29T03:57:39.400Z,12.40
2018-12-29T04:00:27.772Z,12.80
2018-12-29T04:03:16.430Z,12.53
2018-12-29T04:06:04.612Z,12.40
2018-12-29T04:09:11.888Z,13.48
2018-12-29T04:12:00.350Z,12.43
2018-12-29T04:14:48.406Z,11.88
2018-12-29T04:17:36.488Z,12.80
2018-12-29T04:20:24.669Z,13.20
2018-12-29T04:23:13.290Z,12.80
2018-12-29T04:26:01.374Z,11.97
2018-12-29T04:28:49.771Z,12.20
2018-12-29T04:31:37.847Z,12.50
2018-12-29T04:34:25.924Z,12.43
2018-12-29T04:37:13.955Z,13.37
2018-12-29T04:40:02.322Z,13.28
2018-12-29T04:42:50.411Z,14.00
2018-12-29T04:45:38.698Z,13.03
2018-12-29T04:48:26.720Z,13.68
2018-12-29T04:51:14.772Z,12.33
2018-12-29T04:54:02.825Z,13.13
2018-12-29T04:56:50.971Z,13.13
2018-12-29T04:59:39.320Z,13.72
2018-12-29T05:02:27.675Z,13.70
2018-12-29T05:05:15.733Z,13.28
2018-12-29T05:08:03.781Z,12.85
2018-12-29T05:10:51.930Z,13.57
2018-12-29T05:13:40.271Z,13.08
2018-12-29T05:16:28.406Z,14.00
2018-12-29T05:19:16.546Z,13.43
2018-12-29T05:22:04.571Z,13.00
2018-12-29T05:24:45.530Z,12.50
2018-12-29T05:27:26.579Z,13.33
2018-12-29T05:30:07.263Z,12.93
2018-12-29T05:32:47.839Z,13.75
2018-12-29T05:35:29.159Z,13.50
2018-12-29T05:38:10.479Z,12.98
2018-12-29T05:40:51.607Z,12.87
2018-12-29T05:43:32.156Z,11.73
2018-12-29T05:46:20.125Z,13.80
2018-12-29T05:51:37.900Z,12.90
2018-12-29T05:57:01.492Z,13.23
2018-12-29T05:59:42.739Z,14.50
2018-12-29T06:02:23.643Z,13.20
2018-12-29T06:05:04.680Z,13.38
2018-12-29T06:07:45.912Z,13.78
2018-12-29T06:10:26.899Z,12.85
2018-12-29T06:13:07.315Z,13.85
2018-12-29T06:15:47.984Z,13.03
2018-12-29T06:18:28.559Z,12.47
2018-12-29T06:21:09.151Z,14.03
2018-12-29T06:23:49.980Z,12.85
2018-12-29T06:26:30.433Z,13.63
2018-12-29T06:29:11.344Z,11.85
2018-12-29T06:31:52.727Z,12.90
2018-12-29T06:34:33.582Z,13.08
2018-12-29T06:37:14.166Z,12.77
2018-12-29T06:39:55.522Z,11.78
2018-12-29T06:42:36.403Z,12.85
2018-12-29T06:45:18.170Z,12.75
2018-12-29T06:50:47.459Z,13.40
2018-12-29T06:56:10.868Z,12.60
2018-12-29T07:01:35.032Z,13.93
2018-12-29T07:04:15.463Z,13.05
2018-12-29T07:06:59.143Z,12.90
2018-12-29T07:09:39.636Z,13.95
2018-12-29T07:17:56.099Z,12.45
2018-12-29T07:20:37.482Z,13.38
2018-12-29T07:23:21.312Z,14.70
2018-12-29T07:31:57.291Z,11.20
2018-12-29T07:40:09.434Z,13.48
2018-12-29T07:42:53.419Z,13.72
2018-12-29T07:45:34.173Z,13.38
2018-12-29T07:51:00.729Z,12.50
2018-12-29T07:56:24.460Z,12.07
2018-12-29T07:59:05.008Z,13.60
2018-12-29T08:01:45.986Z,12.57
2018-12-29T08:04:26.584Z,11.65
2018-12-29T08:07:07.024Z,12.50
2018-12-29T08:09:47.618Z,12.58
2018-12-29T08:12:28.895Z,12.33
2018-12-29T08:15:09.451Z,12.65
2018-12-29T08:17:50.181Z,14.03
2018-12-29T08:20:31.023Z,13.62
2018-12-29T08:23:11.415Z,13.40
2018-12-29T08:25:52.906Z,13.80
2018-12-29T08:28:33.559Z,14.65
2018-12-29T08:31:14.716Z,13.45
2018-12-29T08:33:55.667Z,12.98
2018-12-29T08:36:36.833Z,13.72
2018-12-29T08:39:17.903Z,13.90
2018-12-29T08:41:58.655Z,14.40
2018-12-29T08:44:39.526Z,14.23
2018-12-29T08:50:32.834Z,12.13
2018-12-29T08:53:13.547Z,12.15
2018-12-29T08:55:53.956Z,12.58
2018-12-29T08:58:34.841Z,13.70
2018-12-29T09:01:15.751Z,13.63
2018-12-29T09:03:57.058Z,13.90
2018-12-29T09:06:38.361Z,13.83
2018-12-29T09:09:19.648Z,13.38
2018-12-29T09:12:00.002Z,11.88
2018-12-29T09:14:40.996Z,12.15
2018-12-29T09:17:21.967Z,12.00
2018-12-29T09:20:02.372Z,12.68
2018-12-29T09:22:42.999Z,12.07
2018-12-29T09:25:23.385Z,12.20
2018-12-29T09:28:04.123Z,11.53
2018-12-29T09:30:45.190Z,11.90
2018-12-29T09:33:26.399Z,11.60
2018-12-29T09:36:07.637Z,11.15
2018-12-29T09:38:48.407Z,12.30
2018-12-29T09:41:30.042Z,10.93
2018-12-29T09:44:10.456Z,12.28
2018-12-29T09:46:51.443Z,13.00
2018-12-29T09:49:32.243Z,13.60
2018-12-29T09:52:14.465Z,12.27
2018-12-29T09:54:55.076Z,11.85
2018-12-29T09:57:35.923Z,11.97
2018-12-29T10:00:16.788Z,12.58
2018-12-29T10:02:58.020Z,13.13
2018-12-29T10:05:39.186Z,13.10
2018-12-29T10:08:21.420Z,12.82
2018-12-29T10:11:02.820Z,12.23
2018-12-29T10:13:43.907Z,11.78
2018-12-29T10:16:24.748Z,12.43
2018-12-29T10:19:05.463Z,10.75
2018-12-29T10:21:46.548Z,11.47
2018-12-29T10:27:16.259Z,11.13
2018-12-29T10:29:57.616Z,9.90
2018-12-29T10:32:38.719Z,11.38
2018-12-29T10:35:20.002Z,11.28
2018-12-29T10:38:00.896Z,11.03
2018-12-29T10:40:41.411Z,11.93
2018-12-29T10:43:22.466Z,11.25
2018-12-29T10:46:03.100Z,11.10
2018-12-29T10:48:44.100Z,10.70
2018-12-29T10:51:24.988Z,11.13
2018-12-29T10:54:06.263Z,10.63
2018-12-29T10:56:47.406Z,9.27
2018-12-29T10:59:29.564Z,10.38
2018-12-29T11:02:11.039Z,10.43
2018-12-29T11:04:51.963Z,8.95
2018-12-29T11:07:32.883Z,10.43
2018-12-29T11:10:14.107Z,10.05
2018-12-29T11:12:55.186Z,10.40
2018-12-29T11:15:35.550Z,9.95
2018-12-29T11:18:16.294Z,8.93
2018-12-29T11:20:57.022Z,10.93
2018-12-29T11:23:38.623Z,9.08
2018-12-29T11:26:19.115Z,9.20
2018-12-29T11:29:00.047Z,8.35
2018-12-29T11:31:40.460Z,9.07
2018-12-29T11:36:41.227Z,9.15
2018-12-29T11:39:21.794Z,9.15
2018-12-29T11:42:02.622Z,9.63
2018-12-29T11:44:43.162Z,9.15
2018-12-29T11:47:24.420Z,8.60
2018-12-29T11:50:05.750Z,8.48
2018-12-29T11:52:34.693Z,9.05
2018-12-29T11:55:22.960Z,8.63
2018-12-29T11:58:11.016Z,8.78
2018-12-29T12:00:59.506Z,9.13
2018-12-29T12:03:47.667Z,8.63
2018-12-29T12:06:35.771Z,8.95
2018-12-29T12:09:23.847Z,8.18
2018-12-29T12:12:11.997Z,7.47
2018-12-29T12:15:00.271Z,8.40
2018-12-29T12:17:48.319Z,9.00
2018-12-29T12:20:36.586Z,8.73
2018-12-29T12:23:24.968Z,8.53
2018-12-29T12:26:13.370Z,7.87
2018-12-29T12:29:01.511Z,7.75
2018-12-29T12:31:51.632Z,8.43
2018-12-29T12:34:39.738Z,7.75
2018-12-29T12:37:27.979Z,6.80
2018-12-29T12:40:17.892Z,6.67
2018-12-29T12:43:06.123Z,6.78
2018-12-29T12:45:54.194Z,6.60
2018-12-29T12:48:42.363Z,7.42
2018-12-29T12:51:30.935Z,6.65
2018-12-29T12:54:19.031Z,8.05
2018-12-29T12:57:07.199Z,8.70
2018-12-29T12:59:57.223Z,14.33
2018-12-29T13:02:48.882Z,19.30
2018-12-29T13:05:36.935Z,16.90
2018-12-29T13:08:26.770Z,11.48
2018-12-29T13:11:14.939Z,8.47
2018-12-29T13:14:04.824Z,11.88
2018-12-29T13:16:52.915Z,8.60
2018-12-29T13:19:41.155Z,9.98
2018-12-29T13:22:29.199Z,10.67
2018-12-29T13:25:19.212Z,9.48
2018-12-29T13:27:59.640Z,8.63
2018-12-29T13:30:40.865Z,7.08
2018-12-29T13:33:22.153Z,6.33
2018-12-29T13:36:03.475Z,6.57
2018-12-29T13:38:44.900Z,5.95
2018-12-29T13:41:25.582Z,6.33
2018-12-29T13:44:06.187Z,7.25
2018-12-29T13:46:47.682Z,7.37
2018-12-29T13:49:28.094Z,6.83
2018-12-29T13:52:09.571Z,6.55
2018-12-29T13:54:50.530Z,6.65
2018-12-29T13:57:30.968Z,6.15
2018-12-29T14:00:12.225Z,5.53
2018-12-29T14:02:53.248Z,6.00
2018-12-29T14:05:34.455Z,6.20
2018-12-29T14:08:15.172Z,6.17
2018-12-29T14:10:56.059Z,6.70
2018-12-29T14:13:36.867Z,5.40
2018-12-29T14:16:17.439Z,6.95
2018-12-29T14:18:58.655Z,6.72
2018-12-29T14:21:39.484Z,7.17
2018-12-29T14:24:20.387Z,8.38
2018-12-29T14:27:01.656Z,7.30
2018-12-29T14:29:42.622Z,12.82
2018-12-29T14:32:23.500Z,10.30
2018-12-29T14:35:04.192Z,13.08
2018-12-29T14:37:45.479Z,10.20
2018-12-29T14:40:26.795Z,13.35
2018-12-29T14:43:07.779Z,11.83
2018-12-29T14:45:48.667Z,7.17
2018-12-29T14:48:35.920Z,9.43
2018-12-29T14:51:12.800Z,7.00
2018-12-29T14:53:53.274Z,6.95
2018-12-29T14:56:33.821Z,6.45
2018-12-29T14:59:15.168Z,7.62
2018-12-29T15:01:55.868Z,6.73
2018-12-29T15:04:36.805Z,8.75
2018-12-29T15:07:17.518Z,6.92
2018-12-29T15:09:58.191Z,7.92
2018-12-29T15:12:39.561Z,6.10
2018-12-29T15:15:20.923Z,7.70
2018-12-29T15:18:01.478Z,6.25
2018-12-29T15:20:42.178Z,6.63
2018-12-29T15:23:22.909Z,5.80
2018-12-29T15:26:04.239Z,5.60
2018-12-29T15:28:45.720Z,5.45
2018-12-29T15:31:27.320Z,5.97
2018-12-29T15:34:08.743Z,6.42
2018-12-29T15:36:50.420Z,5.67
2018-12-29T15:39:31.264Z,5.35
2018-12-29T15:42:11.774Z,5.50
2018-12-29T15:44:52.507Z,5.72
2018-12-29T15:47:33.830Z,5.30
2018-12-29T15:50:14.510Z,5.15
2018-12-29T15:52:55.454Z,5.17
2018-12-29T15:55:36.551Z,5.30
2018-12-29T15:58:18.183Z,5.10
2018-12-29T16:00:58.682Z,5.10
2018-12-29T16:03:39.296Z,5.42
2018-12-29T16:06:19.820Z,5.13
2018-12-29T16:09:00.755Z,5.15
2018-12-29T16:11:41.842Z,5.17
2018-12-29T16:14:22.714Z,5.22
2018-12-29T16:17:04.098Z,4.95
2018-12-29T16:19:44.995Z,4.47
2018-12-29T16:22:25.609Z,6.30
2018-12-29T16:27:55.796Z,6.65
2018-12-29T16:30:37.175Z,5.55
2018-12-29T16:33:18.163Z,5.62
2018-12-29T16:35:59.377Z,5.70
2018-12-29T16:38:40.692Z,6.17
2018-12-29T16:41:22.314Z,6.20
2018-12-29T16:44:04.036Z,5.08
2018-12-29T16:46:44.880Z,5.57
2018-12-29T16:57:57.486Z,5.37
2018-12-29T17:03:24.897Z,5.45
2018-12-29T17:11:43.669Z,5.07
2018-12-29T17:17:11.491Z,4.73
2018-12-29T17:22:38.683Z,4.22
2018-12-29T17:30:51.618Z,3.27
2018-12-29T17:36:14.575Z,5.05
2018-12-29T17:38:55.667Z,3.15
2018-12-29T17:44:26.250Z,3.00
2018-12-29T17:47:07.647Z,3.00
2018-12-29T17:49:48.261Z,2.65
2018-12-29T17:52:28.561Z,2.60
2018-12-29T17:55:09.518Z,2.70
2018-12-29T17:57:50.351Z,3.47
2018-12-29T18:00:31.798Z,3.20
2018-12-29T18:03:13.567Z,3.27
2018-12-29T18:05:54.808Z,2.90
2018-12-29T18:08:35.473Z,2.72
2018-12-29T18:11:16.020Z,2.47
2018-12-29T18:13:57.186Z,3.15
2018-12-29T18:16:37.902Z,3.47
2018-12-29T18:19:18.424Z,3.20
2018-12-29T18:21:58.890Z,3.70
2018-12-29T18:24:39.501Z,3.20
2018-12-29T18:27:20.994Z,3.40
2018-12-29T18:30:01.699Z,3.00
2018-12-29T18:32:42.299Z,2.93
2018-12-29T18:35:23.203Z,3.90
2018-12-29T18:38:03.855Z,3.37
2018-12-29T18:40:44.934Z,3.77
2018-12-29T18:43:25.618Z,3.87
2018-12-29T18:46:06.157Z,3.80
2018-12-29T18:48:46.883Z,4.08
2018-12-29T18:51:27.187Z,3.63
2018-12-29T18:54:07.732Z,3.87
2018-12-29T18:56:48.175Z,4.57
2018-12-29T18:59:29.978Z,4.05
2018-12-29T19:02:11.472Z,3.83
2018-12-29T19:04:52.220Z,4.53
2018-12-29T19:07:33.431Z,4.83
2018-12-29T19:10:14.552Z,4.42
2018-12-29T19:12:54.954Z,5.33
2018-12-29T19:15:36.116Z,5.67
2018-12-29T19:18:16.830Z,5.50
2018-12-29T19:20:58.500Z,5.37
2018-12-29T19:23:39.586Z,5.20
2018-12-29T19:26:20.627Z,6.20
2018-12-29T19:29:02.433Z,5.95
2018-12-29T19:31:44.813Z,6.55
2018-12-29T19:34:26.600Z,6.67
2018-12-29T19:37:07.786Z,7.00
2018-12-29T19:39:48.487Z,6.85
2018-12-29T19:42:29.192Z,7.90
2018-12-29T19:45:09.811Z,8.15
2018-12-29T19:47:50.831Z,8.53
2018-12-29T19:50:32.239Z,8.20
2018-12-29T19:53:13.712Z,8.65
2018-12-29T19:55:55.059Z,9.43
2018-12-29T19:58:35.852Z,8.35
2018-12-29T20:01:16.303Z,9.07
2018-12-29T20:03:57.143Z,8.90
2018-12-29T20:06:37.942Z,8.77
2018-12-29T20:09:18.441Z,10.30
2018-12-29T20:11:58.912Z,10.28
2018-12-29T20:14:39.303Z,8.88
2018-12-29T20:17:19.909Z,9.20
2018-12-29T20:20:01.507Z,8.85
2018-12-29T20:22:42.466Z,9.63
2018-12-29T20:25:23.147Z,11.68
2018-12-29T20:28:04.273Z,10.78
2018-12-29T20:30:45.382Z,10.07
2018-12-29T20:33:26.158Z,9.03
2018-12-29T20:36:06.906Z,10.73
2018-12-29T20:38:48.235Z,10.75
2018-12-29T20:41:29.208Z,10.47
2018-12-29T20:44:10.283Z,10.68
2018-12-29T20:46:51.137Z,9.83
2018-12-29T20:49:32.054Z,11.50
2018-12-29T20:52:12.854Z,9.87
2018-12-29T20:54:53.534Z,10.05
2018-12-29T20:57:34.137Z,10.23
2018-12-29T21:00:14.973Z,11.15
2018-12-29T21:02:55.780Z,10.45
2018-12-29T21:05:36.346Z,12.73
2018-12-29T21:08:17.355Z,11.70
2018-12-29T21:10:58.192Z,11.48
2018-12-29T21:13:38.562Z,12.33
2018-12-29T21:16:18.967Z,10.77
2018-12-29T21:18:59.882Z,11.45
2018-12-29T21:21:40.338Z,11.47
2018-12-29T21:24:21.175Z,11.22
2018-12-29T21:27:01.966Z,9.93
2018-12-29T21:29:43.012Z,10.65
2018-12-29T21:32:24.180Z,10.83
2018-12-29T21:35:05.093Z,11.35
2018-12-29T21:40:28.914Z,10.63
2018-12-29T21:45:52.686Z,10.40
2018-12-29T21:48:33.576Z,11.15
2018-12-29T21:53:59.654Z,10.18
2018-12-29T21:59:22.866Z,9.80
2018-12-29T22:04:51.228Z,9.73
2018-12-29T22:10:18.230Z,8.75
2018-12-29T22:15:45.099Z,9.33
2018-12-29T22:21:09.059Z,8.67
2018-12-29T22:26:36.040Z,7.90
2018-12-29T22:29:17.254Z,7.65
2018-12-29T22:37:41.820Z,6.70
2018-12-29T22:45:51.688Z,5.20
2018-12-29T22:48:32.532Z,5.42
2018-12-29T22:51:13.394Z,5.22
2018-12-29T22:53:54.178Z,4.40
2018-12-29T22:56:34.685Z,4.60
2018-12-29T22:59:15.872Z,4.62
2018-12-29T23:01:56.518Z,5.22
2018-12-29T23:04:37.274Z,5.35
2018-12-29T23:07:18.794Z,3.77
2018-12-29T23:09:59.934Z,4.45
2018-12-29T23:12:40.980Z,3.73
2018-12-29T23:15:22.224Z,2.95
2018-12-29T23:18:02.967Z,2.85
2018-12-29T23:20:49.176Z,2.80
2018-12-29T23:23:26.511Z,2.72
2018-12-29T23:26:07.999Z,2.20
2018-12-29T23:28:49.015Z,3.22
2018-12-29T23:31:29.956Z,2.77
2018-12-29T23:34:10.894Z,1.90
2018-12-29T23:36:51.440Z,2.43
2018-12-29T23:39:32.134Z,1.87
2018-12-29T23:42:12.666Z,2.10
2018-12-29T23:44:53.840Z,2.52
2018-12-29T23:47:34.431Z,1.57
2018-12-29T23:50:15.298Z,1.95
2018-12-29T23:52:56.531Z,1.75
2018-12-29T23:55:37.987Z,2.60
2018-12-29T23:58:18.754Z,2.00
